Aérodrome :
LOGIN :

S'inscrire | Disclaimer

   EN    FR    IT 

 










Légende :    VFR   VFR Marginal   IFR   IFR Intensif   IFR Très Intensif
Visi : 
Plafond : 
>= 8 km
>= 3000ft
5 à 8 km
1000 à 3000 ft
1500m à 5 km
500 à 1000 ft
800 à 1500m
200 à 500 ft
< 800m
< 200 ft
Symboles :   Orages  Brouillard  Fortes neiges  Fortes précipitations  Vent > 20 kt
SIGMETs :   Divers  Orages  Givrage  Turbulence  Onde Orograph.  Cendres Volcan.







- Altitude de l'aérodrome : 1197 ft
- Code IATA : SPM


ETAD - Spangdahlem Ab

DERNIER METAR :
  • 161456Z AUTO 22005KT 9999 CLR 12/02 A3031 RMK AO2 SLP265 T01210020 57009 $

METARs EXPIRÉS :
  • 161356Z AUTO 22003KT 9999 CLR 12/02 A3032 RMK AO2 SLP269 T01210023 $
  • 161256Z AUTO 25005KT 9999 CLR 11/02 A3032 RMK AO2 SLP269 T01130018 $
  • 161156Z AUTO 28003KT 9999 CLR 10/02 A3033 RMK AO2 SLP272 T01010017 10101 21016 55004 $

TAF TAF ETAD
Valide du 16 à 07h jusqu'au 17 à 13h UTC


160700Z 1607/1713 VRB06KT 9999 SKC QNH3027INS
BECMG 1701/1702 VRB06KT 6000 BR SKC QNH3025INS
TEMPO 1703/1705 3200 BR
BECMG 1704/1705 VRB06KT 0800 FZFG VV002 620001 QNH3024INS
BECMG 1708/1709 19006KT 4400 BR BKN003 QNH3023INS
BECMG 1710/1711 19006KT 9999 NSW SCT005 QNH3021INS TX11/1614Z TNM01/1607Z
Pas de NOTAMs connus pour ce terrain.



MET'MAP, la Météo Aéronautique d'un coup d'oeil ! - Copyright ORBIFLY Décembre 2007 - Disclaimer

ORBIFLY MET'MAP TEAM :

Programmation & Développement : Alexandra Zaïnal
Conception & Développement : Baudouin d'Aumeries
Co-Programmation & Développement : Marc-Olivier Méhu
Soutien technique & logistique : Manuel Goepfert

Contact : metmap@orbifly.com




SOURCES & CREDITS :

   NOAA